Time;durP1;ratioP1;P1;durP2;ratioP2;P2;SDS_P1;SDS_P2;PMS_P1;PMS_P2;Temp;Humidity;BMP_temperature;BMP_pressure;BME280_temperature;BME280_humidity;BME280_pressure;Samples;Min_cycle;Max_cycle;Signal;HPM_P1;HPM_P2
2022/07/16 00:01:22;;;;;;;7.38;4.50;;;;;;;;;;5047474;28;20044;-77
2022/07/16 00:01:45;;;;;;;7.50;4.45;;;;;;;16.78;68.42;68639.00;5045645;28;20045;-77
2022/07/16 00:04:10;;;;;;;10.27;3.72;;;;;;;;;;5052559;28;20612;-77
2022/07/16 00:06:36;;;;;;;5.82;3.67;;;;;;;16.78;68.26;68633.63;5047845;28;20501;-77
2022/07/16 00:09:01;;;;;;;7.57;3.40;;;;;;;;;;5062057;28;20521;-77
2022/07/16 00:11:27;;;;;;;6.18;3.40;;;;;;;16.73;67.92;68633.28;5053819;28;20044;-77
2022/07/16 00:13:52;;;;;;;5.47;2.95;;;;;;;;;;5060398;28;20047;-77
2022/07/16 00:16:17;;;;;;;7.13;3.33;;;;;;;16.67;68.11;68618.38;5083802;28;20138;-77
2022/07/16 00:21:27;;;;;;;6.50;3.20;;;;;;;16.69;67.98;68623.91;5068710;28;20067;-77
2022/07/16 00:23:53;;;;;;;6.53;2.55;;;;;;;16.69;68.03;68628.72;5068479;28;20055;-77
2022/07/16 00:26:19;;;;;;;6.07;2.20;;;;;;;16.68;68.14;68622.19;5066888;28;20051;-77
2022/07/16 00:28:44;;;;;;;4.70;2.47;;;;;;;16.69;67.59;68628.72;5067505;28;20044;-77
2022/07/16 00:31:10;;;;;;;6.35;2.47;;;;;;;16.68;67.70;68627.56;5068155;28;20044;-77
2022/07/16 00:33:35;;;;;;;3.95;2.17;;;;;;;;;;5069133;28;20040;-77
2022/07/16 00:36:01;;;;;;;4.75;2.30;;;;;;;16.67;67.81;68626.44;5068972;28;20090;-77
2022/07/16 00:38:26;;;;;;;5.63;2.45;;;;;;;16.65;68.06;68624.16;5069106;28;20040;-77
2022/07/16 00:40:52;;;;;;;6.25;2.30;;;;;;;16.64;67.95;68623.59;5068326;28;20194;-77
2022/07/16 00:43:17;;;;;;;3.85;2.00;;;;;;;;;;5067994;28;20117;-77
2022/07/16 00:45:42;;;;;;;3.08;1.85;;;;;;;;;;5068097;28;20040;-77
2022/07/16 00:48:09;;;;;;;4.10;2.15;;;;;;;16.64;68.00;68623.03;5082042;28;20055;-77
2022/07/16 00:50:35;;;;;;;4.55;1.95;;;;;;;;;;5069680;28;20033;-77
2022/07/16 00:53:01;;;;;;;5.25;2.40;;;;;;;16.62;68.08;68615.94;5070761;28;20512;-77
2022/07/16 00:55:27;;;;;;;5.25;2.17;;;;;;;16.65;68.28;68624.16;5070291;28;20041;-77
2022/07/16 00:57:54;;;;;;;3.90;2.10;;;;;;;16.64;68.03;68623.59;5070292;28;20048;-77
2022/07/16 01:00:20;;;;;;;4.63;2.45;;;;;;;16.69;67.97;68629.28;5070107;28;20242;-77
2022/07/16 01:02:45;;;;;;;4.82;2.42;;;;;;;16.69;68.31;68628.72;5070799;28;20044;-77
2022/07/16 01:05:10;;;;;;;4.68;2.75;;;;;;;;;;5070131;28;20052;-77
2022/07/16 01:07:36;;;;;;;3.65;2.30;;;;;;;16.70;68.43;68629.84;5068760;28;20158;-77
2022/07/16 01:10:03;;;;;;;6.25;2.30;;;;;;;16.64;68.38;68623.03;5058305;28;20036;-77
2022/07/16 01:12:29;;;;;;;5.07;2.30;;;;;;;;;;5069851;28;20061;-77
2022/07/16 01:14:56;;;;;;;5.60;2.70;;;;;;;16.57;68.78;68615.63;5069621;28;20125;-77
2022/07/16 01:17:21;;;;;;;3.83;2.40;;;;;;;;;;5070008;28;20294;-77
2022/07/16 01:19:46;;;;;;;5.75;2.20;;;;;;;16.53;68.70;68613.16;5070380;28;20570;-77
2022/07/16 01:22:17;;;;;;;4.97;2.35;;;;;;;;;;5093743;28;20040;-77
2022/07/16 01:24:42;;;;;;;4.35;2.30;;;;;;;16.60;68.47;68610.38;5069595;28;20041;-77
2022/07/16 01:27:08;;;;;;;4.60;2.45;;;;;;;16.59;68.20;68617.31;5066383;28;20498;-77
2022/07/16 01:29:33;;;;;;;4.78;2.00;;;;;;;16.58;67.89;68616.19;5068592;28;20032;-77
2022/07/16 01:31:58;;;;;;;4.22;2.08;;;;;;;16.62;67.99;68620.72;5065579;28;20071;-77
2022/07/16 01:34:27;;;;;;;4.07;1.90;;;;;;;16.64;67.97;68623.03;5069526;28;20489;-77
2022/07/16 01:37:03;;;;;;;3.13;2.13;;;;;;;;;;5068754;28;20047;-77
2022/07/16 01:39:29;;;;;;;4.93;2.53;;;;;;;;;;5069831;28;20156;-77
2022/07/16 01:41:56;;;;;;;4.07;2.08;;;;;;;;;;5068053;28;20048;-77
2022/07/16 01:44:24;;;;;;;5.80;2.13;;;;;;;16.60;68.15;68613.66;5068644;28;20125;-77
2022/07/16 01:46:50;;;;;;;4.45;2.25;;;;;;;16.64;68.14;68623.59;5067710;28;20052;-78
2022/07/16 01:49:16;;;;;;;3.60;2.13;;;;;;;16.61;68.34;68620.16;5069241;28;20066;-78
2022/07/16 01:51:41;;;;;;;5.05;2.53;;;;;;;16.56;68.38;68609.09;5066564;28;20060;-78
2022/07/16 01:54:07;;;;;;;4.75;2.75;;;;;;;16.59;68.62;68620.00;5068281;28;20494;-78
2022/07/16 01:56:32;;;;;;;4.25;2.63;;;;;;;16.55;68.67;68612.75;5067959;28;20051;-78
2022/07/16 01:58:57;;;;;;;3.85;2.50;;;;;;;;;;5067148;28;20052;-78
2022/07/16 02:01:23;;;;;;;6.60;2.53;;;;;;;16.54;68.78;68611.59;5066554;28;20571;-78
2022/07/16 02:03:48;;;;;;;4.85;2.17;;;;;;;16.53;68.89;68611.03;5069228;28;20044;-78
2022/07/16 02:06:13;;;;;;;3.78;2.38;;;;;;;16.51;68.87;68611.44;5069102;28;20131;-78
2022/07/16 02:08:39;;;;;;;6.65;3.05;;;;;;;;;;5068079;28;20493;-78
2022/07/16 02:11:04;;;;;;;3.72;2.60;;;;;;;;;;5066239;28;20074;-78
2022/07/16 02:13:29;;;;;;;4.80;2.22;;;;;;;;;;5067959;28;20040;-77
2022/07/16 02:15:55;;;;;;;4.07;2.40;;;;;;;;;;5065652;28;20032;-77
2022/07/16 02:18:20;;;;;;;5.45;2.58;;;;;;;16.56;68.80;68613.91;5067489;28;20409;-77
2022/07/16 02:20:46;;;;;;;5.05;2.78;;;;;;;16.51;69.22;68602.81;5067113;28;20037;-77
2022/07/16 02:23:11;;;;;;;4.82;2.50;;;;;;;;;;5068836;28;20128;-77
2022/07/16 02:25:37;;;;;;;5.88;2.63;;;;;;;16.50;69.19;68601.69;5069125;28;20378;-77
2022/07/16 02:28:08;;;;;;;3.80;2.33;;;;;;;;;;5068585;28;20045;-77
2022/07/16 02:30:44;;;;;;;4.88;2.67;;;;;;;16.50;69.42;68607.63;5067984;28;20040;-77
2022/07/16 02:33:09;;;;;;;5.30;2.72;;;;;;;;;;5069480;28;20047;-77
2022/07/16 02:35:36;;;;;;;6.40;2.85;;;;;;;16.51;69.22;68608.19;5069498;28;20041;-77
2022/07/16 02:38:03;;;;;;;5.07;2.88;;;;;;;16.57;69.02;68615.63;5068464;28;20098;-77
2022/07/16 02:40:29;;;;;;;4.70;2.80;;;;;;;16.52;69.31;68604.53;5068192;28;20409;-77
2022/07/16 02:42:55;;;;;;;6.38;2.60;;;;;;;16.51;69.51;68608.75;5066188;28;20041;-77
2022/07/16 02:45:20;;;;;;;4.82;2.85;;;;;;;16.52;69.42;68609.34;5070122;28;20497;-78
2022/07/16 02:47:46;;;;;;;5.45;2.88;;;;;;;16.50;69.72;68601.69;5068284;28;20048;-78
2022/07/16 02:50:11;;;;;;;5.18;2.75;;;;;;;16.50;69.66;68607.06;5067970;28;20036;-77
2022/07/16 02:52:36;;;;;;;3.90;2.78;;;;;;;;;;5067557;28;20040;-77
2022/07/16 02:55:03;;;;;;;5.38;2.53;;;;;;;16.46;69.76;68597.69;5065254;28;20740;-77
2022/07/16 02:57:29;;;;;;;4.72;2.80;;;;;;;;;;5066019;28;20111;-77
2022/07/16 02:59:54;;;;;;;4.70;2.90;;;;;;;16.39;70.22;68598.34;5065523;28;20124;-77
2022/07/16 03:02:20;;;;;;;4.50;2.50;;;;;;;16.42;70.19;68598.50;5066270;28;20037;-77
2022/07/16 03:04:45;;;;;;;4.97;2.80;;;;;;;;;;5066614;28;20077;-77
2022/07/16 03:07:10;;;;;;;3.33;2.55;;;;;;;16.40;70.32;68596.81;5066718;28;20063;-77
2022/07/16 03:09:36;;;;;;;5.45;3.10;;;;;;;16.36;70.71;68591.66;5067979;28;20124;-77
2022/07/16 03:12:01;;;;;;;6.50;2.95;;;;;;;;;;5065864;28;20498;-77
2022/07/16 03:14:26;;;;;;;6.45;3.03;;;;;;;;;;5067159;28;20060;-77
2022/07/16 03:16:51;;;;;;;4.72;3.22;;;;;;;;;;5066151;28;20409;-78
2022/07/16 03:19:17;;;;;;;6.55;2.97;;;;;;;16.18;71.86;68574.41;5068010;28;20097;-77
2022/07/16 03:21:42;;;;;;;6.25;2.85;;;;;;;16.18;71.76;68571.72;5066198;28;20119;-77
2022/07/16 03:24:07;;;;;;;4.97;3.10;;;;;;;;;;5065652;28;20509;-77
2022/07/16 03:26:33;;;;;;;5.25;3.47;;;;;;;16.15;72.24;68568.28;5065930;28;20036;-77
2022/07/16 03:28:58;;;;;;;7.82;3.40;;;;;;;;;;5066152;28;20045;-77
2022/07/16 03:31:24;;;;;;;6.28;3.60;;;;;;;16.14;72.44;68567.72;5065350;28;20556;-78
2022/07/16 03:33:49;;;;;;;5.88;3.90;;;;;;;16.13;72.76;68569.25;5066682;28;20040;-77
2022/07/16 03:36:14;;;;;;;6.63;3.72;;;;;;;16.05;73.27;68556.88;5059946;28;20443;-78
2022/07/16 03:41:24;;;;;;;7.32;3.55;;;;;;;16.06;73.43;68558.03;5063663;28;20062;-77
2022/07/16 03:43:49;;;;;;;6.80;3.13;;;;;;;;;;5065191;28;20482;-77
2022/07/16 03:46:15;;;;;;;7.88;3.58;;;;;;;15.99;73.95;68550.63;5066435;28;20049;-77
2022/07/16 03:48:42;;;;;;;6.00;3.10;;;;;;;15.96;74.15;68547.78;5067647;28;20033;-77
2022/07/16 03:51:08;;;;;;;6.75;3.00;;;;;;;15.92;74.75;68542.66;5064349;28;20048;-77
2022/07/16 03:53:34;;;;;;;8.82;3.63;;;;;;;;;;5066369;28;20401;-77
2022/07/16 03:55:59;;;;;;;5.57;3.13;;;;;;;15.95;74.66;68541.25;5066363;28;20051;-77
2022/07/16 03:58:26;;;;;;;7.68;3.53;;;;;;;15.96;74.87;68547.19;5064866;28;20039;-77
2022/07/16 04:00:52;;;;;;;6.47;3.33;;;;;;;15.96;75.23;68547.78;5064080;28;20036;-77
2022/07/16 04:03:17;;;;;;;4.43;3.20;;;;;;;15.93;75.24;68544.34;5063909;28;20051;-77
2022/07/16 04:05:43;;;;;;;7.35;3.53;;;;;;;15.94;75.32;68540.13;5065948;28;20485;-77
2022/07/16 04:08:08;;;;;;;5.45;3.22;;;;;;;;;;5063824;28;20043;-77
2022/07/16 04:10:33;;;;;;;6.88;3.78;;;;;;;15.96;75.83;68547.78;5065946;28;20048;-77
2022/07/16 04:12:59;;;;;;;5.43;3.50;;;;;;;16.04;75.58;68555.75;5063900;28;20420;-77
2022/07/16 04:15:24;;;;;;;6.85;4.03;;;;;;;15.98;76.17;68544.13;5067268;28;20047;-77
2022/07/16 04:17:50;;;;;;;6.85;4.03;;;;;;;;;;5066688;28;20047;-77
2022/07/16 04:20:15;;;;;;;6.53;4.28;;;;;;;16.07;76.06;68559.19;5068779;28;20123;-77
2022/07/16 04:22:41;;;;;;;9.15;3.92;;;;;;;16.07;76.21;68559.19;5067114;28;20431;-78
2022/07/16 04:25:06;;;;;;;6.38;4.28;;;;;;;16.08;76.60;68560.88;5067975;28;20048;-78
2022/07/16 04:27:32;;;;;;;5.18;4.03;;;;;;;16.08;76.89;68565.69;5068578;28;20041;-77
2022/07/16 04:29:58;;;;;;;6.43;4.15;;;;;;;16.09;77.23;68561.47;5065575;28;20459;-78
2022/07/16 04:32:23;;;;;;;7.43;4.20;;;;;;;16.09;77.57;68561.47;5068712;28;20047;-77
2022/07/16 04:34:49;;;;;;;5.82;4.20;;;;;;;16.06;78.32;68558.59;5069957;28;20029;-77
2022/07/16 04:37:14;;;;;;;5.32;3.67;;;;;;;16.02;79.81;68554.63;5067889;28;20068;-78
2022/07/16 04:39:40;;;;;;;7.22;3.92;;;;;;;15.86;83.85;68539.06;5071145;28;20418;-77
2022/07/16 04:42:05;;;;;;;6.50;3.85;;;;;;;;;;5066231;28;20081;-77
2022/07/16 04:44:30;;;;;;;6.25;4.07;;;;;;;;;;5065894;28;20040;-77
2022/07/16 04:46:55;;;;;;;7.47;4.70;;;;;;;;;;5064175;28;20045;-77
2022/07/16 04:49:21;;;;;;;8.10;4.33;;;;;;;15.24;95.93;68466.84;5067308;28;20052;-77
2022/07/16 04:51:46;;;;;;;7.90;4.15;;;;;;;15.16;96.24;68460.41;5067644;28;20278;-77
2022/07/16 04:54:11;;;;;;;8.23;4.32;;;;;;;;;;5065942;28;20063;-78
2022/07/16 04:56:37;;;;;;;6.68;5.10;;;;;;;;;;5068914;28;20075;-78
2022/07/16 04:59:02;;;;;;;4.97;4.13;;;;;;;15.10;98.84;68446.69;5068025;28;20052;-76
2022/07/16 05:01:27;;;;;;;8.10;4.68;;;;;;;15.06;100.00;68447.50;5066214;28;20060;-78
2022/07/16 05:03:53;;;;;;;7.28;4.78;;;;;;;;;;5067814;28;20048;-76
2022/07/16 05:06:18;;;;;;;7.27;4.53;;;;;;;15.12;100.00;68448.97;5068821;28;20069;-76
2022/07/16 05:08:43;;;;;;;8.73;5.00;;;;;;;15.09;100.00;68442.28;5066020;28;20301;-77
2022/07/16 05:11:10;;;;;;;7.90;4.60;;;;;;;15.06;100.00;68447.50;5066558;28;20820;-78
2022/07/16 05:13:35;;;;;;;8.05;5.15;;;;;;;15.17;100.00;68458.88;5067631;28;20098;-78
2022/07/16 05:16:02;;;;;;;7.60;5.45;;;;;;;;;;5081519;28;20079;-78
2022/07/16 05:18:28;;;;;;;8.18;4.70;;;;;;;15.24;100.00;68467.41;5067601;28;20413;-77
2022/07/16 05:20:54;;;;;;;9.30;5.43;;;;;;;15.26;100.00;68463.78;5067327;28;20082;-78
2022/07/16 05:23:19;;;;;;;7.93;5.20;;;;;;;15.26;100.00;68469.13;5069585;28;20036;-77
2022/07/16 05:25:44;;;;;;;7.45;4.97;;;;;;;15.30;100.00;68476.38;5068529;28;20143;-78
2022/07/16 05:28:10;;;;;;;8.85;5.25;;;;;;;15.35;100.00;68482.63;5066118;28;20493;-78
2022/07/16 05:30:35;;;;;;;8.40;5.35;;;;;;;;;;5068525;28;20037;-76
2022/07/16 05:33:01;;;;;;;8.60;5.50;;;;;;;15.41;100.00;68486.22;5068063;28;20478;-77
2022/07/16 05:35:26;;;;;;;10.35;5.88;;;;;;;15.47;100.00;68493.06;5068446;28;20042;-77
2022/07/16 05:37:51;;;;;;;9.38;5.88;;;;;;;15.53;100.00;68494.53;5069803;28;20094;-77
2022/07/16 05:40:17;;;;;;;9.30;5.93;;;;;;;15.54;100.00;68500.47;5071383;28;20102;-77
2022/07/16 05:42:42;;;;;;;10.05;5.57;;;;;;;;;;5069778;28;20047;-78
2022/07/16 05:45:08;;;;;;;7.50;5.72;;;;;;;15.57;100.00;68504.44;5069879;28;20055;-77
2022/07/16 05:47:34;;;;;;;10.27;6.15;;;;;;;15.62;100.00;68511.69;5068362;28;20708;-78
2022/07/16 05:50:03;;;;;;;7.72;5.40;;;;;;;15.59;100.00;68500.78;5069501;28;20040;-78
2022/07/16 05:52:29;;;;;;;7.30;5.38;;;;;;;;;;5069749;28;20040;-77
2022/07/16 05:54:54;;;;;;;9.02;5.10;;;;;;;15.72;100.00;68520.44;5064103;28;20449;-77
2022/07/16 05:57:19;;;;;;;7.97;4.40;;;;;;;15.84;100.00;68534.09;5069015;28;20636;-77
2022/07/16 05:59:45;;;;;;;8.07;4.35;;;;;;;;;;5070901;28;20044;-78
2022/07/16 06:02:10;;;;;;;7.20;4.30;;;;;;;15.93;100.00;68544.34;5070168;28;20402;-77
2022/07/16 06:04:35;;;;;;;7.10;4.28;;;;;;;;;;5071536;28;20052;-78
2022/07/16 06:07:01;;;;;;;6.72;3.95;;;;;;;15.96;99.87;68550.44;5074554;28;20108;-76
2022/07/16 06:09:27;;;;;;;8.20;4.03;;;;;;;16.03;99.68;68549.81;5081786;28;20051;-78
2022/07/16 06:11:52;;;;;;;6.13;4.00;;;;;;;16.10;100.00;68557.22;5070899;28;20040;-77
2022/07/16 06:14:17;;;;;;;6.00;3.63;;;;;;;;;;5068972;28;20444;-78
2022/07/16 06:16:43;;;;;;;6.25;3.42;;;;;;;;;;5071791;28;20040;-76
2022/07/16 06:19:08;;;;;;;9.52;3.67;;;;;;;;;;5070002;28;20056;-77
2022/07/16 06:21:34;;;;;;;6.70;3.42;;;;;;;16.27;95.01;68576.03;5067923;28;20048;-77
2022/07/16 06:23:59;;;;;;;6.57;2.92;;;;;;;16.22;94.98;68576.25;5069837;28;20036;-78
2022/07/16 06:26:25;;;;;;;7.50;2.88;;;;;;;16.21;94.49;68575.13;5066357;28;20041;-77
2022/07/16 06:28:50;;;;;;;4.70;2.50;;;;;;;16.24;93.53;68573.19;5084194;28;20633;-77
2022/07/16 06:31:15;;;;;;;7.63;3.33;;;;;;;16.27;94.33;68581.97;5069211;28;20617;-77
2022/07/16 06:33:41;;;;;;;4.53;2.88;;;;;;;16.34;94.60;68589.38;5072816;28;20039;-78
2022/07/16 06:36:06;;;;;;;7.15;3.03;;;;;;;16.41;94.36;68597.38;5069357;28;20163;-77
2022/07/16 06:38:32;;;;;;;6.85;2.83;;;;;;;;;;5067046;28;20105;-77
2022/07/16 06:40:57;;;;;;;5.20;2.35;;;;;;;;;;5065758;28;20055;-77
2022/07/16 06:43:23;;;;;;;6.80;1.95;;;;;;;16.94;88.52;68656.09;5066307;28;20052;-80
2022/07/16 06:45:48;;;;;;;4.95;1.85;;;;;;;16.99;86.83;68662.38;5067114;28;20049;-76
2022/07/16 06:48:14;;;;;;;4.78;2.22;;;;;;;17.11;86.17;68675.50;5065919;28;20044;-82
2022/07/16 06:50:39;;;;;;;4.82;2.05;;;;;;;;;;5067415;28;20040;-77
2022/07/16 06:53:04;;;;;;;4.88;2.03;;;;;;;17.35;85.69;68702.31;5068477;28;20086;-77
2022/07/16 06:55:30;;;;;;;5.65;1.73;;;;;;;17.32;83.61;68693.50;5082430;28;20135;-79
2022/07/16 06:57:55;;;;;;;5.78;2.05;;;;;;;17.16;83.83;68681.22;5066890;28;20097;-78
2022/07/16 07:00:21;;;;;;;4.45;1.90;;;;;;;;;;5066154;28;20413;-78
2022/07/16 07:02:46;;;;;;;6.70;1.70;;;;;;;17.11;82.55;68675.50;5066029;28;20186;-81
2022/07/16 07:05:11;;;;;;;4.32;1.60;;;;;;;;;;5065199;28;20044;-79
2022/07/16 07:07:37;;;;;;;5.77;2.10;;;;;;;16.95;82.98;68657.25;5061386;28;20055;-78
2022/07/16 07:10:02;;;;;;;3.88;1.52;;;;;;;;;;5066735;28;20279;-78
2022/07/16 07:12:28;;;;;;;5.22;1.70;;;;;;;17.18;81.32;68683.50;5077624;28;20044;-79
2022/07/16 07:14:53;;;;;;;8.35;2.20;;;;;;;17.28;81.12;68689.50;5064830;28;20467;-80
2022/07/16 07:17:18;;;;;;;5.25;1.38;;;;;;;;;;5067218;28;20409;-79
2022/07/16 07:19:44;;;;;;;6.63;1.60;;;;;;;17.45;79.41;68713.16;5064469;28;20117;-77
2022/07/16 07:22:09;;;;;;;3.22;1.30;;;;;;;17.50;78.92;68714.06;5065856;28;20052;-77
2022/07/16 07:24:34;;;;;;;4.65;1.40;;;;;;;17.68;77.41;68733.44;5067255;28;20042;-77
2022/07/16 07:27:00;;;;;;;3.58;1.40;;;;;;;;;;5066720;28;20040;-77
2022/07/16 07:29:25;;;;;;;6.43;1.73;;;;;;;17.80;75.74;68747.72;5066101;28;20086;-78
2022/07/16 07:31:51;;;;;;;6.45;1.70;;;;;;;17.79;76.58;68746.03;5066200;28;20040;-80
2022/07/16 07:34:16;;;;;;;6.22;1.75;;;;;;;17.71;75.65;68742.81;5066544;28;20045;-78
2022/07/16 07:36:41;;;;;;;3.35;1.48;;;;;;;17.58;76.26;68722.63;5067023;28;20552;-79
2022/07/16 07:39:07;;;;;;;5.38;1.58;;;;;;;17.50;76.29;68713.47;5077143;28;20453;-80
2022/07/16 07:41:32;;;;;;;3.88;1.27;;;;;;;17.34;76.98;68701.72;5065621;28;20440;-77
2022/07/16 07:43:58;;;;;;;3.80;1.65;;;;;;;17.23;76.02;68683.81;5063951;28;20047;-78
2022/07/16 07:46:23;;;;;;;5.05;1.75;;;;;;;17.19;77.02;68678.69;5065001;28;20079;-80
2022/07/16 07:48:48;;;;;;;6.60;1.83;;;;;;;;;;5067011;28;20033;-77
2022/07/16 07:51:14;;;;;;;4.05;1.40;;;;;;;17.24;76.69;68690.34;5065071;28;20066;-77
2022/07/16 07:53:39;;;;;;;4.15;1.60;;;;;;;;;;5065850;28;20440;-79
2022/07/16 07:56:05;;;;;;;5.17;1.37;;;;;;;;;;5064252;28;20469;-77
2022/07/16 07:58:30;;;;;;;5.28;1.58;;;;;;;17.68;74.15;68734.00;5065055;28;20298;-79
2022/07/16 08:00:56;;;;;;;4.13;1.38;;;;;;;17.81;68.37;68754.25;5064624;28;20040;-80
2022/07/16 08:03:21;;;;;;;3.72;1.05;;;;;;;;;;5064853;28;20048;-78
2022/07/16 08:05:47;;;;;;;5.78;1.27;;;;;;;18.10;65.42;68785.66;5065645;28;20137;-76
2022/07/16 08:08:12;;;;;;;3.65;1.15;;;;;;;18.16;64.67;68787.69;5065227;28;20040;-81
2022/07/16 08:10:38;;;;;;;3.00;0.93;;;;;;;18.25;63.03;68797.94;5065148;28;20044;-77
2022/07/16 08:13:03;;;;;;;6.47;1.40;;;;;;;18.25;63.09;68797.94;5065573;28;20188;-78
2022/07/16 08:15:28;;;;;;;4.88;1.08;;;;;;;18.27;63.14;68799.69;5082043;28;20044;-80
2022/07/16 08:17:54;;;;;;;6.50;1.17;;;;;;;18.40;62.95;68814.50;5065044;28;20525;-77
2022/07/16 08:20:19;;;;;;;2.63;1.05;;;;;;;;;;5063377;28;20117;-76
2022/07/16 08:22:45;;;;;;;6.05;1.30;;;;;;;17.94;62.77;68773.34;5065982;28;20045;-81
2022/07/16 08:27:55;;;;;;;5.45;1.50;;;;;;;17.85;63.41;68752.31;5065302;28;20101;-78
2022/07/16 08:30:20;;;;;;;5.25;1.33;;;;;;;;;;5065011;28;20510;-79
2022/07/16 08:32:46;;;;;;;4.72;1.20;;;;;;;17.80;61.79;68753.09;5065346;28;20131;-78
2022/07/16 08:35:11;;;;;;;3.63;1.05;;;;;;;17.91;62.31;68759.72;5065643;28;20045;-80
2022/07/16 08:37:39;;;;;;;5.75;1.50;;;;;;;17.97;63.53;68771.38;5065500;28;20040;-76
2022/07/16 08:40:06;;;;;;;5.90;1.40;;;;;;;;;;5064833;28;20040;-77
2022/07/16 08:42:33;;;;;;;4.57;1.10;;;;;;;17.84;60.79;68756.53;5060837;28;20043;-79
2022/07/16 08:44:59;;;;;;;3.00;1.10;;;;;;;18.07;59.93;68782.81;5061013;28;20048;-77
2022/07/16 08:47:26;;;;;;;3.63;1.17;;;;;;;18.03;60.05;68773.41;5064946;28;20512;-77
2022/07/16 08:49:51;;;;;;;4.95;1.17;;;;;;;;;;5065257;28;20189;-78
2022/07/16 08:52:19;;;;;;;2.67;1.10;;;;;;;;;;5062799;28;20692;-77
2022/07/16 08:54:45;;;;;;;3.40;1.25;;;;;;;17.85;58.08;68757.69;5064573;28;20131;-77
2022/07/16 08:57:11;;;;;;;4.10;0.88;;;;;;;17.89;58.58;68762.81;5065414;28;20052;-77
2022/07/16 08:59:37;;;;;;;4.45;0.90;;;;;;;;;;5065546;28;20041;-77
2022/07/16 09:02:02;;;;;;;2.30;0.90;;;;;;;18.19;57.51;68791.09;5064560;28;20036;-77
2022/07/16 09:04:28;;;;;;;3.38;0.90;;;;;;;18.25;58.52;68797.94;5064904;28;20049;-77
2022/07/16 09:06:53;;;;;;;3.10;0.82;;;;;;;18.14;57.15;68784.81;5064731;28;20115;-77
2022/07/16 09:09:19;;;;;;;4.50;0.88;;;;;;;18.06;57.36;68784.34;5063911;28;20036;-77
2022/07/16 09:11:46;;;;;;;3.17;0.93;;;;;;;18.06;56.20;68781.66;5058828;28;20041;-77
2022/07/16 09:14:13;;;;;;;3.55;1.30;;;;;;;;;;5066364;28;20086;-77
2022/07/16 09:16:45;;;;;;;4.43;1.10;;;;;;;18.03;56.06;68781.47;5065927;28;20051;-77
2022/07/16 09:19:23;;;;;;;4.43;1.00;;;;;;;;;;5059363;28;20075;-77
2022/07/16 09:22:07;;;;;;;5.85;1.33;;;;;;;;;;5068445;28;20106;-77
2022/07/16 09:24:41;;;;;;;4.72;1.10;;;;;;;17.90;58.14;68763.41;5067341;28;20049;-77
2022/07/16 09:27:27;;;;;;;4.60;0.95;;;;;;;17.90;58.53;68758.56;5067601;28;20075;-77
2022/07/16 09:30:02;;;;;;;2.53;0.90;;;;;;;;;;5068709;28;20044;-77
2022/07/16 09:32:32;;;;;;;4.05;0.80;;;;;;;;;;5065438;28;20044;-77
2022/07/16 09:35:05;;;;;;;2.10;0.75;;;;;;;18.72;55.40;68855.88;5066005;28;20059;-77
2022/07/16 09:37:47;;;;;;;4.82;1.13;;;;;;;;;;5064933;28;20505;-77
2022/07/16 09:40:13;;;;;;;3.80;1.00;;;;;;;;;;5068411;28;20044;-78
2022/07/16 09:42:39;;;;;;;4.38;0.98;;;;;;;;;;5068275;28;20194;-77
2022/07/16 09:45:05;;;;;;;3.85;0.80;;;;;;;;;;5064248;28;20119;-77
2022/07/16 09:47:31;;;;;;;4.00;0.95;;;;;;;18.53;54.36;68828.19;5069586;28;20047;-77
2022/07/16 09:49:57;;;;;;;2.95;1.00;;;;;;;18.41;54.08;68821.06;5069260;28;20037;-78
2022/07/16 09:52:29;;;;;;;3.33;0.85;;;;;;;18.66;56.96;68848.44;5066566;28;20045;-77
2022/07/16 09:54:55;;;;;;;6.40;1.13;;;;;;;;;;5067165;28;20037;-77
2022/07/16 09:57:21;;;;;;;4.40;1.00;;;;;;;18.86;57.01;68865.34;5065998;28;20048;-77
2022/07/16 09:59:47;;;;;;;5.45;1.42;;;;;;;19.02;56.52;68883.63;5068192;28;20045;-77
2022/07/16 10:02:13;;;;;;;5.75;1.00;;;;;;;;;;5067643;28;20047;-77
2022/07/16 10:04:39;;;;;;;4.10;1.05;;;;;;;19.26;55.24;68915.31;5067963;28;20040;-77
2022/07/16 10:07:05;;;;;;;3.22;1.08;;;;;;;19.12;54.40;68895.03;5067278;28;20033;-77
2022/07/16 10:09:31;;;;;;;4.20;0.80;;;;;;;19.10;55.47;68887.38;5067821;28;20080;-78
2022/07/16 10:12:01;;;;;;;3.65;0.85;;;;;;;19.10;54.68;68892.78;5068242;28;20100;-78
2022/07/16 10:14:26;;;;;;;4.82;0.93;;;;;;;;;;5066309;28;20691;-78
2022/07/16 10:16:58;;;;;;;3.63;1.10;;;;;;;19.33;52.08;68918.47;5069251;28;20124;-78
2022/07/16 10:19:33;;;;;;;3.72;0.85;;;;;;;19.58;52.44;68954.56;5061936;28;20128;-76
2022/07/16 10:22:14;;;;;;;3.30;1.00;;;;;;;;;;5058401;28;20036;-76
2022/07/16 10:24:58;;;;;;;3.35;0.80;;;;;;;19.57;52.52;68944.75;5067269;28;20869;-76
2022/07/16 10:27:24;;;;;;;5.20;1.10;;;;;;;;;;5060355;28;20048;-76
2022/07/16 10:29:49;;;;;;;3.95;0.90;;;;;;;19.80;52.62;68970.50;5067727;28;20037;-76
2022/07/16 10:32:27;;;;;;;6.20;0.98;;;;;;;;;;5068251;28;20494;-76
2022/07/16 10:34:54;;;;;;;4.50;1.10;;;;;;;19.67;55.09;68963.72;5081532;28;20040;-76
2022/07/16 10:37:28;;;;;;;3.80;0.85;;;;;;;19.89;53.86;68980.78;5068072;28;20110;-76
2022/07/16 10:40:06;;;;;;;4.93;1.42;;;;;;;19.92;53.73;68984.19;5068708;28;20119;-76
2022/07/16 10:42:33;;;;;;;5.47;0.88;;;;;;;19.83;54.40;68973.91;5065707;28;20526;-76
2022/07/16 10:44:58;;;;;;;4.50;1.10;;;;;;;;;;5066288;28;20128;-76
2022/07/16 10:47:43;;;;;;;4.75;1.02;;;;;;;20.21;52.24;69013.50;5082188;28;20600;-76
2022/07/16 10:50:14;;;;;;;4.05;1.02;;;;;;;20.17;50.71;69012.22;5066775;28;20044;-76
2022/07/16 10:52:42;;;;;;;2.72;0.82;;;;;;;20.15;49.49;69009.34;5068119;28;20037;-78
2022/07/16 10:55:07;;;;;;;3.20;0.77;;;;;;;;;;5065825;28;20130;-76
2022/07/16 10:57:38;;;;;;;4.22;1.05;;;;;;;20.39;49.10;69030.81;5068295;28;20663;-75
2022/07/16 11:00:06;;;;;;;4.25;0.70;;;;;;;20.28;49.60;69024.19;5065110;28;20470;-76
2022/07/16 11:02:36;;;;;;;4.85;0.80;;;;;;;;;;5066558;28;20040;-76
2022/07/16 11:05:02;;;;;;;6.18;1.15;;;;;;;20.79;48.08;69078.13;5065084;28;20055;-77
2022/07/16 11:07:34;;;;;;;4.45;0.80;;;;;;;20.86;48.27;69086.13;5068232;28;20041;-77
2022/07/16 11:09:59;;;;;;;4.07;0.88;;;;;;;21.02;46.99;69107.16;5066097;28;20039;-76
2022/07/16 11:12:29;;;;;;;4.15;0.93;;;;;;;20.78;46.35;69079.69;5061435;28;20044;-78
2022/07/16 11:14:59;;;;;;;3.42;0.77;;;;;;;20.44;49.35;69039.22;5045753;28;20051;-78
2022/07/16 11:17:27;;;;;;;11.02;1.05;;;;;;;20.48;49.31;69047.09;5023425;28;20582;-79
2022/07/16 11:19:56;;;;;;;6.10;1.10;;;;;;;20.31;50.23;69027.63;5037849;28;20041;-77
2022/07/16 11:22:22;;;;;;;;;;;;;;;20.47;48.14;69045.38;5043524;28;20041;-76
2022/07/16 11:24:49;;;;;;;3.45;0.73;;;;;;;;;;5043298;28;19928;-76
2022/07/16 11:27:16;;;;;;;1.60;0.50;;;;;;;20.59;48.35;69058.53;5028163;28;20044;-78
2022/07/16 11:29:42;;;;;;;6.07;1.20;;;;;;;20.52;47.77;69051.09;5044791;28;20203;-77
2022/07/16 11:32:13;;;;;;;3.72;0.85;;;;;;;20.54;49.18;69058.78;5042931;28;20562;-79
2022/07/16 11:34:38;;;;;;;5.22;0.98;;;;;;;20.48;48.90;69041.69;5028589;28;20041;-78
2022/07/16 11:37:04;;;;;;;3.95;0.80;;;;;;;20.65;48.75;69065.41;5045538;28;20067;-79
2022/07/16 11:39:29;;;;;;;2.60;0.82;;;;;;;20.92;47.61;69096.28;5045300;28;20045;-77
2022/07/16 11:41:58;;;;;;;4.50;1.00;;;;;;;;;;5062119;28;20131;-78
2022/07/16 11:44:29;;;;;;;3.80;0.75;;;;;;;20.84;46.88;69087.13;5062192;28;20139;-81
2022/07/16 11:46:56;;;;;;;5.65;1.13;;;;;;;20.70;48.42;69076.53;5064038;28;20711;-77
2022/07/16 11:49:36;;;;;;;4.22;0.90;;;;;;;20.80;45.18;69079.84;5067345;28;20543;-78
2022/07/16 11:52:09;;;;;;;3.40;0.98;;;;;;;20.66;47.11;69063.84;5063330;28;20051;-80
2022/07/16 11:54:36;;;;;;;2.72;0.90;;;;;;;;;;5066257;28;20037;-77
2022/07/16 11:57:02;;;;;;;3.03;0.93;;;;;;;20.87;48.62;69090.56;5064656;28;20569;-78
2022/07/16 11:59:29;;;;;;;3.65;1.00;;;;;;;;;;5063135;28;20124;-78
2022/07/16 12:02:02;;;;;;;5.15;1.17;;;;;;;;;;5064106;28;20047;-83
2022/07/16 12:04:44;;;;;;;3.53;0.70;;;;;;;21.04;47.64;69109.44;5048878;28;20139;-77
2022/07/16 12:07:30;;;;;;;4.22;0.90;;;;;;;21.45;47.89;69155.22;5065949;28;20545;-78
2022/07/16 12:10:02;;;;;;;4.35;1.02;;;;;;;21.24;47.39;69131.75;5066257;28;20036;-78
2022/07/16 12:12:34;;;;;;;6.53;1.35;;;;;;;21.26;48.02;69128.63;5065265;28;20036;-77
2022/07/16 12:15:02;;;;;;;3.78;1.10;;;;;;;21.29;47.44;69134.75;5066001;28;20036;-79
2022/07/16 12:17:31;;;;;;;3.60;1.00;;;;;;;;;;5065803;28;20040;-78
2022/07/16 12:20:19;;;;;;;3.50;0.80;;;;;;;21.10;46.24;69116.31;5056658;28;20425;-79
2022/07/16 12:22:51;;;;;;;4.13;0.90;;;;;;;;;;5055784;28;20071;-78
2022/07/16 12:25:18;;;;;;;4.50;0.75;;;;;;;21.33;48.38;69147.47;5065560;28;20044;-77